Time;durP1;ratioP1;P1;durP2;ratioP2;P2;SDS_P1;SDS_P2;PMS_P1;PMS_P2;Temp;Humidity;BMP_temperature;BMP_pressure;BME280_temperature;BME280_humidity;BME280_pressure;Samples;Min_cycle;Max_cycle;Signal;HPM_P1;HPM_P2
2021/06/14 00:01:58;;;;;;;0.73;0.22;;;;;;;-148.58;100.00;55229.56;5033506;28;20075;-59
2021/06/14 00:04:24;;;;;;;0.40;0.20;;;;;;;-148.58;100.00;55229.56;5033830;28;20752;-59
2021/06/14 00:06:50;;;;;;;0.80;0.30;;;;;;;-148.58;100.00;55229.56;5033457;28;20017;-59
2021/06/14 00:09:20;;;;;;;1.65;0.45;;;;;;;-148.58;100.00;55229.56;5033787;28;20037;-59
2021/06/14 00:11:46;;;;;;;0.93;0.40;;;;;;;-148.58;100.00;55229.56;5033508;28;20030;-60
2021/06/14 00:14:11;;;;;;;2.15;0.60;;;;;;;-148.58;100.00;55229.56;5033609;28;20204;-59
2021/06/14 00:16:37;;;;;;;0.82;0.22;;;;;;;-148.58;100.00;55229.56;5033466;28;20075;-59
2021/06/14 00:19:05;;;;;;;0.80;0.43;;;;;;;-148.58;100.00;55229.56;5033498;28;20465;-59
2021/06/14 00:21:30;;;;;;;0.65;0.50;;;;;;;-148.58;100.00;55229.56;5033488;28;20380;-59
2021/06/14 00:23:55;;;;;;;1.23;0.38;;;;;;;-148.58;100.00;55229.56;5033046;28;20025;-59
2021/06/14 00:26:21;;;;;;;0.68;0.30;;;;;;;-148.58;100.00;55229.56;5033437;28;20420;-59
2021/06/14 00:28:46;;;;;;;1.30;0.55;;;;;;;-148.58;100.00;55229.56;5033472;28;20040;-59
2021/06/14 00:31:11;;;;;;;2.38;0.50;;;;;;;-148.58;100.00;55229.56;5033376;28;20021;-60
2021/06/14 00:33:38;;;;;;;1.48;0.30;;;;;;;-148.58;100.00;55229.56;5033243;28;20472;-59
2021/06/14 00:36:05;;;;;;;1.40;0.40;;;;;;;-148.58;100.00;55229.56;5033171;28;20034;-60
2021/06/14 00:38:30;;;;;;;0.20;0.20;;;;;;;-148.58;100.00;55229.56;5033166;28;20057;-59
2021/06/14 00:40:55;;;;;;;1.30;0.38;;;;;;;-148.58;100.00;55229.56;5032901;28;20068;-59
2021/06/14 00:43:21;;;;;;;0.47;0.20;;;;;;;-148.58;100.00;55229.56;5033265;28;20029;-59
2021/06/14 00:45:49;;;;;;;1.95;0.20;;;;;;;-148.58;100.00;55229.56;5032930;28;20408;-59
2021/06/14 00:48:15;;;;;;;0.73;0.30;;;;;;;-148.58;100.00;55229.56;5033197;28;20017;-59
2021/06/14 00:50:52;;;;;;;1.08;0.47;;;;;;;-148.58;100.00;55229.56;5032614;28;20461;-59
2021/06/14 00:53:28;;;;;;;0.77;0.20;;;;;;;-148.58;100.00;55229.56;5032888;28;20491;-59
2021/06/14 00:55:53;;;;;;;3.20;0.38;;;;;;;-148.58;100.00;55229.56;5032334;28;20026;-59
2021/06/14 00:58:19;;;;;;;0.65;0.28;;;;;;;-148.58;100.00;55229.56;5032494;28;20029;-59
2021/06/14 01:00:45;;;;;;;0.65;0.20;;;;;;;-148.58;100.00;55229.56;5032730;28;20031;-60
2021/06/14 01:03:11;;;;;;;1.35;0.30;;;;;;;-148.58;100.00;55229.56;5032697;28;20183;-59
2021/06/14 01:05:43;;;;;;;2.00;0.60;;;;;;;-148.58;100.00;55229.56;5032630;28;20528;-59
2021/06/14 01:08:09;;;;;;;1.45;0.40;;;;;;;-148.58;100.00;55229.56;5032717;28;20032;-59
2021/06/14 01:10:39;;;;;;;0.32;0.30;;;;;;;-148.58;100.00;55229.56;5032716;28;20026;-60
2021/06/14 01:13:13;;;;;;;0.17;0.13;;;;;;;-148.58;100.00;55229.56;5032759;28;20021;-60
2021/06/14 01:16:01;;;;;;;0.47;0.17;;;;;;;-148.58;100.00;55229.56;5032595;28;20465;-60
2021/06/14 01:18:32;;;;;;;3.35;0.50;;;;;;;-148.58;100.00;55229.56;5032491;28;20527;-60
2021/06/14 01:21:22;;;;;;;1.15;0.20;;;;;;;-148.58;100.00;55229.56;5032510;28;20076;-59
2021/06/14 01:24:21;;;;;;;1.02;0.30;;;;;;;-148.58;100.00;55229.56;5032291;28;20096;-59
2021/06/14 01:26:59;;;;;;;0.63;0.10;;;;;;;-148.58;100.00;55229.56;5031727;28;20052;-59
2021/06/14 01:29:25;;;;;;;1.40;0.40;;;;;;;-148.58;100.00;55229.56;5032594;28;20036;-59
2021/06/14 01:31:51;;;;;;;0.75;0.40;;;;;;;-148.58;100.00;55229.56;5032402;28;20059;-59
2021/06/14 01:34:17;;;;;;;1.35;0.30;;;;;;;-148.58;100.00;55229.56;5032487;28;20036;-59
2021/06/14 01:36:43;;;;;;;0.57;0.30;;;;;;;-148.58;100.00;55229.56;5032255;28;20017;-59
2021/06/14 01:39:09;;;;;;;0.57;0.32;;;;;;;-148.58;100.00;55229.56;5032831;28;20026;-59
2021/06/14 01:41:36;;;;;;;0.85;0.50;;;;;;;-148.58;100.00;55229.56;5032340;28;20486;-59
2021/06/14 01:44:03;;;;;;;1.85;0.63;;;;;;;-148.58;100.00;55229.56;5032380;28;20041;-59
2021/06/14 01:46:34;;;;;;;0.32;0.10;;;;;;;-148.58;100.00;55229.56;5032672;28;20104;-59
2021/06/14 01:49:01;;;;;;;0.57;0.20;;;;;;;-148.58;100.00;55229.56;5032334;28;20021;-59
2021/06/14 01:51:28;;;;;;;0.50;0.30;;;;;;;-148.58;100.00;55229.56;5032394;28;20029;-59
2021/06/14 01:54:04;;;;;;;0.47;0.20;;;;;;;-148.58;100.00;55229.56;5031899;28;20049;-59
2021/06/14 01:56:40;;;;;;;0.35;0.22;;;;;;;-148.58;100.00;55229.56;5027717;28;20018;-59
2021/06/14 01:59:08;;;;;;;0.80;0.20;;;;;;;-148.58;100.00;55229.56;5012525;28;20026;-59
2021/06/14 02:01:36;;;;;;;1.38;0.40;;;;;;;-148.58;100.00;55229.56;5012305;28;20270;-59
2021/06/14 02:04:03;;;;;;;0.95;0.70;;;;;;;-148.58;100.00;55229.56;5015930;28;20030;-59
2021/06/14 02:06:34;;;;;;;1.27;0.40;;;;;;;-148.58;100.00;55229.56;5016242;28;20065;-60
2021/06/14 02:09:02;;;;;;;1.38;0.20;;;;;;;-148.58;100.00;55229.56;5017026;28;20021;-59
2021/06/14 02:11:30;;;;;;;1.27;0.32;;;;;;;-148.58;100.00;55229.56;5035973;28;20017;-59
2021/06/14 02:13:57;;;;;;;1.75;0.40;;;;;;;-148.58;100.00;55229.56;5036046;28;20029;-59
2021/06/14 02:16:24;;;;;;;0.85;0.20;;;;;;;-148.58;100.00;55229.56;5035770;28;20059;-58
2021/06/14 02:18:50;;;;;;;1.08;0.38;;;;;;;-148.58;100.00;55229.56;5035610;28;20022;-59
2021/06/14 02:21:15;;;;;;;0.30;0.15;;;;;;;-148.58;100.00;55229.56;5035802;28;20032;-59
2021/06/14 02:23:40;;;;;;;0.93;0.30;;;;;;;-148.58;100.00;55229.56;5035258;28;20037;-59
2021/06/14 02:26:06;;;;;;;1.02;0.38;;;;;;;-148.58;100.00;55229.56;5035569;28;20021;-59
2021/06/14 02:28:31;;;;;;;0.80;0.35;;;;;;;-148.58;100.00;55229.56;5035597;28;20116;-59
2021/06/14 02:30:58;;;;;;;0.82;0.50;;;;;;;-148.58;100.00;55229.56;5035453;28;20025;-59
2021/06/14 02:33:23;;;;;;;0.20;0.13;;;;;;;-148.58;100.00;55229.56;5034309;28;20025;-59
2021/06/14 02:35:48;;;;;;;0.38;0.20;;;;;;;-148.58;100.00;55229.56;5035350;28;20075;-59
2021/06/14 02:38:14;;;;;;;0.77;0.20;;;;;;;-148.58;100.00;55229.56;5035283;28;20063;-59
2021/06/14 02:40:41;;;;;;;1.00;0.40;;;;;;;-148.58;100.00;55229.56;5035356;28;20051;-59
2021/06/14 02:43:08;;;;;;;0.47;0.20;;;;;;;-148.58;100.00;55229.56;5035326;28;20028;-59
2021/06/14 02:45:35;;;;;;;0.60;0.30;;;;;;;-148.58;100.00;55229.56;5035264;28;20033;-59
2021/06/14 02:48:03;;;;;;;0.75;0.52;;;;;;;-148.58;100.00;55229.56;5035209;28;20495;-59
2021/06/14 02:50:31;;;;;;;0.98;0.38;;;;;;;-148.58;100.00;55229.56;5035173;28;20104;-59
2021/06/14 02:53:00;;;;;;;0.40;0.30;;;;;;;-148.58;100.00;55229.56;5034995;28;20029;-58
2021/06/14 02:55:33;;;;;;;0.55;0.10;;;;;;;-148.58;100.00;55229.56;5034787;28;20036;-59
2021/06/14 02:58:00;;;;;;;0.80;0.28;;;;;;;-148.58;100.00;55229.56;5034651;28;20064;-58
2021/06/14 03:00:30;;;;;;;0.20;0.20;;;;;;;-148.58;100.00;55229.56;5034968;28;20029;-59
2021/06/14 03:03:04;;;;;;;0.88;0.28;;;;;;;-148.58;100.00;55229.56;5034701;28;20510;-58
2021/06/14 03:05:30;;;;;;;0.45;0.25;;;;;;;-148.58;100.00;55229.56;5035053;28;20357;-59
2021/06/14 03:08:02;;;;;;;0.55;0.30;;;;;;;-148.58;100.00;55229.56;5034724;28;20337;-59
2021/06/14 03:10:30;;;;;;;0.25;0.25;;;;;;;-148.58;100.00;55229.56;5034819;28;20112;-59
2021/06/14 03:12:57;;;;;;;0.47;0.10;;;;;;;-148.58;100.00;55229.56;5033999;28;20056;-60
2021/06/14 03:15:26;;;;;;;2.45;0.20;;;;;;;-148.58;100.00;55229.56;5034658;28;20053;-59
2021/06/14 03:17:53;;;;;;;0.10;0.10;;;;;;;-148.58;100.00;55229.56;5034344;28;20043;-59
2021/06/14 03:20:20;;;;;;;0.50;0.40;;;;;;;-148.58;100.00;55229.56;5034664;28;20108;-59
2021/06/14 03:22:46;;;;;;;0.60;0.35;;;;;;;-148.58;100.00;55229.56;5016732;28;20021;-58
2021/06/14 03:25:12;;;;;;;1.55;0.30;;;;;;;-148.58;100.00;55229.56;5034333;28;20049;-58
2021/06/14 03:27:38;;;;;;;0.22;0.22;;;;;;;-148.58;100.00;55229.56;5034519;28;20059;-59
2021/06/14 03:30:04;;;;;;;0.20;0.10;;;;;;;-148.58;100.00;55229.56;5034397;28;20029;-59
2021/06/14 03:32:31;;;;;;;0.25;0.15;;;;;;;-148.58;100.00;55229.56;5033207;28;20017;-59
2021/06/14 03:34:57;;;;;;;2.00;0.55;;;;;;;-148.58;100.00;55229.56;5034224;28;20460;-59
2021/06/14 03:37:22;;;;;;;1.40;0.50;;;;;;;-148.58;100.00;55229.56;5034361;28;20032;-59
2021/06/14 03:39:47;;;;;;;0.75;0.20;;;;;;;-148.58;100.00;55229.56;5034427;28;20025;-59
2021/06/14 03:42:18;;;;;;;0.43;0.20;;;;;;;-148.58;100.00;55229.56;5034127;28;20030;-59
2021/06/14 03:44:44;;;;;;;0.77;0.15;;;;;;;-148.58;100.00;55229.56;5033990;28;20025;-58
2021/06/14 03:47:09;;;;;;;0.80;0.35;;;;;;;-148.58;100.00;55229.56;5034163;28;20025;-59
2021/06/14 03:49:34;;;;;;;0.75;0.30;;;;;;;-148.58;100.00;55229.56;5034133;28;20021;-59
2021/06/14 03:52:00;;;;;;;0.43;0.10;;;;;;;-148.58;100.00;55229.56;5033966;28;20037;-59
2021/06/14 03:54:25;;;;;;;0.40;0.20;;;;;;;-148.58;100.00;55229.56;5033698;28;20044;-58
2021/06/14 03:56:50;;;;;;;0.82;0.20;;;;;;;-148.58;100.00;55229.56;5033609;28;20121;-59
2021/06/14 03:59:16;;;;;;;1.85;0.60;;;;;;;-148.58;100.00;55229.56;5034000;28;20029;-59
2021/06/14 04:01:41;;;;;;;0.85;0.30;;;;;;;-148.58;100.00;55229.56;5033550;28;20128;-59
2021/06/14 04:06:50;;;;;;;1.50;0.30;;;;;;;-148.58;100.00;55229.56;5033871;28;20032;-59
2021/06/14 04:09:15;;;;;;;0.77;0.30;;;;;;;-148.58;100.00;55229.56;5033740;28;20030;-59
2021/06/14 04:11:40;;;;;;;0.50;0.25;;;;;;;-148.58;100.00;55229.56;5033618;28;20388;-58
2021/06/14 04:14:06;;;;;;;1.10;0.30;;;;;;;-148.58;100.00;55229.56;5033516;28;20080;-59
2021/06/14 04:16:31;;;;;;;1.25;0.20;;;;;;;-148.58;100.00;55229.56;5034135;28;20021;-59
2021/06/14 04:18:56;;;;;;;0.22;0.13;;;;;;;-148.58;100.00;55229.56;5033296;28;20030;-58
2021/06/14 04:21:22;;;;;;;0.50;0.20;;;;;;;-148.58;100.00;55229.56;5033579;28;20475;-59
2021/06/14 04:23:47;;;;;;;0.30;0.20;;;;;;;-148.58;100.00;55229.56;5033040;28;20018;-59
2021/06/14 04:26:13;;;;;;;0.38;0.10;;;;;;;-148.58;100.00;55229.56;5032704;28;20091;-59
2021/06/14 04:28:39;;;;;;;0.40;0.20;;;;;;;-148.58;100.00;55229.56;5033283;28;20071;-59
2021/06/14 04:31:05;;;;;;;0.47;0.30;;;;;;;-148.58;100.00;55229.56;5033268;28;20027;-59
2021/06/14 04:33:30;;;;;;;0.28;0.22;;;;;;;-148.58;100.00;55229.56;5033361;28;20030;-59
2021/06/14 04:35:55;;;;;;;0.63;0.30;;;;;;;-148.58;100.00;55229.56;5033047;28;20112;-58
2021/06/14 04:38:21;;;;;;;0.25;0.17;;;;;;;-148.58;100.00;55229.56;5033127;28;20030;-58
2021/06/14 04:40:46;;;;;;;0.70;0.20;;;;;;;-148.58;100.00;55229.56;5033041;28;20036;-59
2021/06/14 04:43:11;;;;;;;1.02;0.20;;;;;;;-148.58;100.00;55229.56;5033149;28;20107;-59
2021/06/14 04:45:37;;;;;;;0.57;0.17;;;;;;;-148.58;100.00;55229.56;5033014;28;20030;-59
2021/06/14 04:48:02;;;;;;;0.50;0.20;;;;;;;-148.58;100.00;55229.56;5032968;28;20044;-58
2021/06/14 04:50:27;;;;;;;0.10;0.10;;;;;;;-148.58;100.00;55229.56;5033050;28;20108;-59
2021/06/14 04:52:53;;;;;;;1.55;0.50;;;;;;;-148.58;100.00;55229.56;5033230;28;20075;-59
2021/06/14 04:55:18;;;;;;;1.17;0.38;;;;;;;-148.58;100.00;55229.56;5017308;28;20454;-59
2021/06/14 04:57:44;;;;;;;0.25;0.20;;;;;;;-148.58;100.00;55229.56;5032586;28;20376;-59
2021/06/14 05:00:10;;;;;;;0.30;0.10;;;;;;;-148.58;100.00;55229.56;5032844;28;20075;-59
2021/06/14 05:02:35;;;;;;;0.45;0.25;;;;;;;-148.58;100.00;55229.56;5032499;28;20477;-59
2021/06/14 05:05:01;;;;;;;0.10;0.10;;;;;;;-148.58;100.00;55229.56;5032663;28;20033;-58
2021/06/14 05:07:26;;;;;;;0.70;0.20;;;;;;;-148.58;100.00;55229.56;5032850;28;20109;-58
2021/06/14 05:09:56;;;;;;;0.30;0.20;;;;;;;-148.58;100.00;55229.56;5032823;28;20071;-59
2021/06/14 05:12:21;;;;;;;0.55;0.10;;;;;;;-148.58;100.00;55229.56;5032754;28;20498;-58
2021/06/14 05:14:47;;;;;;;1.08;0.20;;;;;;;-148.58;100.00;55229.56;5032549;28;20101;-58
2021/06/14 05:17:12;;;;;;;0.65;0.20;;;;;;;-148.58;100.00;55229.56;5032602;28;20036;-60
2021/06/14 05:19:37;;;;;;;1.67;0.22;;;;;;;-148.58;100.00;55229.56;5032627;28;20052;-59
2021/06/14 05:22:04;;;;;;;0.30;0.10;;;;;;;-148.58;100.00;55229.56;5014918;28;20116;-59
2021/06/14 05:24:33;;;;;;;0.60;0.10;;;;;;;-148.58;100.00;55229.56;5032438;28;20253;-59
2021/06/14 05:26:58;;;;;;;0.10;0.10;;;;;;;-148.58;100.00;55229.56;5032474;28;20052;-58
2021/06/14 05:29:24;;;;;;;0.70;0.20;;;;;;;-148.58;100.00;55229.56;5032661;28;20104;-59
2021/06/14 05:31:49;;;;;;;0.52;0.32;;;;;;;-148.58;100.00;55229.56;5014719;28;20032;-59
2021/06/14 05:34:15;;;;;;;0.20;0.10;;;;;;;-148.58;100.00;55229.56;5032512;28;20495;-58
2021/06/14 05:36:40;;;;;;;0.77;0.20;;;;;;;-148.58;100.00;55229.56;5033777;28;20522;-58
2021/06/14 05:39:05;;;;;;;0.10;0.10;;;;;;;-148.58;100.00;55229.56;5036439;28;20033;-59
2021/06/14 05:41:30;;;;;;;0.38;0.22;;;;;;;-148.58;100.00;55229.56;5036507;28;20025;-59
2021/06/14 05:43:56;;;;;;;0.25;0.17;;;;;;;-148.58;100.00;55229.56;5036304;28;20042;-59
2021/06/14 05:46:21;;;;;;;0.45;0.10;;;;;;;-148.58;100.00;55229.56;5036458;28;20060;-59
2021/06/14 05:48:47;;;;;;;0.98;0.10;;;;;;;-148.58;100.00;55229.56;5036191;28;20017;-59
2021/06/14 05:51:12;;;;;;;0.45;0.10;;;;;;;-148.58;100.00;55229.56;5036421;28;20055;-59
2021/06/14 05:53:37;;;;;;;0.70;0.20;;;;;;;-148.58;100.00;55229.56;5035912;28;20397;-59
2021/06/14 05:56:03;;;;;;;0.13;0.13;;;;;;;-148.58;100.00;55229.56;5036499;28;20033;-59
2021/06/14 05:58:28;;;;;;;0.80;0.20;;;;;;;-148.58;100.00;55229.56;5036075;28;20080;-59
2021/06/14 06:00:53;;;;;;;0.10;0.10;;;;;;;-148.58;100.00;55229.56;5034979;28;20030;-59
2021/06/14 06:03:19;;;;;;;0.95;0.63;;;;;;;-148.58;100.00;55229.56;5035794;28;20059;-59
2021/06/14 06:05:44;;;;;;;0.32;0.10;;;;;;;-148.58;100.00;55229.56;5035819;28;20045;-59
2021/06/14 06:08:09;;;;;;;0.52;0.20;;;;;;;-148.58;100.00;55229.56;5035771;28;20044;-59
2021/06/14 06:10:35;;;;;;;1.60;0.30;;;;;;;-148.58;100.00;55229.56;5035859;28;20034;-59
2021/06/14 06:13:01;;;;;;;1.52;0.32;;;;;;;-148.58;100.00;55229.56;5035888;28;20500;-59
2021/06/14 06:15:27;;;;;;;0.47;0.20;;;;;;;-148.58;100.00;55229.56;5035966;28;20034;-59
2021/06/14 06:17:52;;;;;;;0.52;0.10;;;;;;;-148.58;100.00;55229.56;5034584;28;20250;-60
2021/06/14 06:20:18;;;;;;;0.15;0.10;;;;;;;-148.58;100.00;55229.56;5033681;28;20025;-60
2021/06/14 06:22:44;;;;;;;0.40;0.20;;;;;;;-148.58;100.00;55229.56;5033906;28;20025;-58
2021/06/14 06:25:15;;;;;;;1.05;0.10;;;;;;;-148.58;100.00;55229.56;5034212;28;20036;-60
2021/06/14 06:27:41;;;;;;;6.75;3.67;;;;;;;-148.58;100.00;55229.56;5034306;28;20021;-58
2021/06/14 06:30:08;;;;;;;9.85;6.88;;;;;;;-148.58;100.00;55229.56;5034593;28;20595;-59
2021/06/14 06:32:33;;;;;;;7.28;5.95;;;;;;;-148.58;100.00;55229.56;5028234;28;20052;-59
2021/06/14 06:34:59;;;;;;;7.47;5.55;;;;;;;-148.58;100.00;55229.56;5034435;28;20021;-59
2021/06/14 06:37:24;;;;;;;5.65;4.47;;;;;;;-148.58;100.00;55229.56;5034613;28;20021;-59
2021/06/14 06:39:49;;;;;;;4.97;4.30;;;;;;;-148.58;100.00;55229.56;5034114;28;20033;-59
2021/06/14 06:42:15;;;;;;;4.28;3.88;;;;;;;-148.58;100.00;55229.56;5035975;28;20380;-58
2021/06/14 06:44:40;;;;;;;3.50;3.17;;;;;;;-148.58;100.00;55229.56;5034773;28;20021;-58
2021/06/14 06:47:06;;;;;;;3.90;3.13;;;;;;;-148.58;100.00;55229.56;5034501;28;20017;-59
2021/06/14 06:49:32;;;;;;;2.75;2.55;;;;;;;-148.58;100.00;55229.56;5031728;28;20551;-59
2021/06/14 06:51:58;;;;;;;2.63;2.42;;;;;;;-148.58;100.00;55229.56;5035233;28;20032;-58
2021/06/14 06:54:24;;;;;;;2.33;2.13;;;;;;;-148.58;100.00;55229.56;5038825;28;20441;-58
2021/06/14 06:56:52;;;;;;;2.58;1.92;;;;;;;-148.58;100.00;55229.56;5048327;28;20109;-58
2021/06/14 06:59:17;;;;;;;2.13;1.67;;;;;;;-148.58;100.00;55229.56;5036007;28;20108;-58
2021/06/14 07:01:44;;;;;;;2.10;1.90;;;;;;;-148.58;100.00;55229.56;5030996;28;20136;-59
2021/06/14 07:04:09;;;;;;;3.78;1.60;;;;;;;-148.58;100.00;55229.56;5027572;28;20104;-59
2021/06/14 07:06:35;;;;;;;1.33;1.05;;;;;;;-148.58;100.00;55229.56;5030214;28;20116;-59
2021/06/14 07:09:00;;;;;;;1.55;1.20;;;;;;;-148.58;100.00;55229.56;5031395;28;20053;-58
2021/06/14 07:11:27;;;;;;;2.42;0.90;;;;;;;-148.58;100.00;55229.56;5022175;28;20490;-59
2021/06/14 07:13:53;;;;;;;1.48;0.75;;;;;;;-148.58;100.00;55229.56;5028333;28;20057;-59
2021/06/14 07:16:19;;;;;;;0.57;0.50;;;;;;;-148.58;100.00;55229.56;5024388;28;20350;-59
2021/06/14 07:18:45;;;;;;;1.42;0.63;;;;;;;-148.58;100.00;55229.56;5028152;28;20017;-59
2021/06/14 07:21:11;;;;;;;0.52;0.40;;;;;;;-148.58;100.00;55229.56;5022642;28;20035;-60
2021/06/14 07:23:36;;;;;;;0.80;0.50;;;;;;;-148.58;100.00;55229.56;5017106;28;20033;-59
2021/06/14 07:26:02;;;;;;;1.85;0.43;;;;;;;-148.58;100.00;55229.56;5032342;28;20029;-59
2021/06/14 07:28:28;;;;;;;1.02;0.70;;;;;;;-148.58;100.00;55229.56;5030593;28;20060;-59
2021/06/14 07:30:53;;;;;;;1.17;0.40;;;;;;;-148.58;100.00;55229.56;5024565;28;20104;-58
2021/06/14 07:33:18;;;;;;;0.82;0.30;;;;;;;-148.58;100.00;55229.56;5020204;28;20021;-58
2021/06/14 07:35:44;;;;;;;0.75;0.30;;;;;;;-148.58;100.00;55229.56;5028749;28;20051;-59
2021/06/14 07:38:11;;;;;;;1.63;0.40;;;;;;;-148.58;100.00;55229.56;5034184;28;20380;-58
2021/06/14 07:40:36;;;;;;;0.40;0.28;;;;;;;-148.58;100.00;55229.56;5034867;28;20104;-59
2021/06/14 07:43:02;;;;;;;1.05;0.30;;;;;;;-148.58;100.00;55229.56;5020421;28;20506;-58
2021/06/14 07:45:28;;;;;;;2.20;0.57;;;;;;;-148.58;100.00;55229.56;5020093;28;20032;-59
2021/06/14 07:47:53;;;;;;;0.30;0.13;;;;;;;-148.58;100.00;55229.56;5032143;28;20040;-60
2021/06/14 07:50:20;;;;;;;0.68;0.20;;;;;;;-148.58;100.00;55229.56;5024230;28;20049;-60
2021/06/14 07:52:46;;;;;;;0.60;0.28;;;;;;;-148.58;100.00;55229.56;5026098;28;20043;-60
2021/06/14 07:55:12;;;;;;;0.93;0.20;;;;;;;-148.58;100.00;55229.56;5019291;28;20105;-59
2021/06/14 07:57:37;;;;;;;0.85;0.20;;;;;;;-148.58;100.00;55229.56;5016656;28;20473;-61
2021/06/14 08:00:04;;;;;;;0.63;0.15;;;;;;;-148.58;100.00;55229.56;5013280;28;20037;-60
2021/06/14 08:02:30;;;;;;;0.15;0.10;;;;;;;-148.58;100.00;55229.56;5024956;28;20049;-60
2021/06/14 08:04:55;;;;;;;0.43;0.10;;;;;;;-148.58;100.00;55229.56;5024105;28;20145;-59
2021/06/14 08:07:20;;;;;;;0.50;0.30;;;;;;;-148.58;100.00;55229.56;5024787;28;20468;-60
2021/06/14 08:09:48;;;;;;;0.40;0.20;;;;;;;-148.58;100.00;55229.56;5028166;28;20041;-60
2021/06/14 08:12:13;;;;;;;0.68;0.20;;;;;;;-148.58;100.00;55229.56;5021008;28;20030;-59
2021/06/14 08:14:38;;;;;;;0.85;0.20;;;;;;;-148.58;100.00;55229.56;5015361;28;20018;-60
2021/06/14 08:17:04;;;;;;;0.82;0.25;;;;;;;-148.58;100.00;55229.56;5015353;28;20514;-60
2021/06/14 08:19:52;;;;;;;0.20;0.20;;;;;;;-148.58;100.00;55229.56;5018795;28;20030;-60
2021/06/14 08:22:37;;;;;;;0.60;0.10;;;;;;;-148.58;100.00;55229.56;5026196;28;20394;-61
2021/06/14 08:25:05;;;;;;;;;;;;;;;-148.58;100.00;55229.56;5032113;28;20511;-61
2021/06/14 08:27:36;;;;;;;1.17;0.32;;;;;;;-148.58;100.00;55229.56;5029869;28;19920;-59
2021/06/14 08:30:06;;;;;;;1.45;0.30;;;;;;;-148.58;100.00;55229.56;5030708;28;20025;-60
2021/06/14 08:32:32;;;;;;;0.85;0.38;;;;;;;-148.58;100.00;55229.56;5030264;28;20452;-59
2021/06/14 08:34:57;;;;;;;1.27;0.38;;;;;;;-148.58;100.00;55229.56;5031170;28;20240;-60
2021/06/14 08:37:22;;;;;;;2.33;0.57;;;;;;;-148.58;100.00;55229.56;5013616;28;20090;-59
2021/06/14 08:39:48;;;;;;;0.90;0.40;;;;;;;-148.58;100.00;55229.56;5023712;28;20025;-59
2021/06/14 08:42:13;;;;;;;2.72;0.60;;;;;;;-148.58;100.00;55229.56;5013194;28;20026;-59
2021/06/14 08:44:40;;;;;;;0.30;0.20;;;;;;;-148.58;100.00;55229.56;5030959;28;20030;-60
2021/06/14 08:47:08;;;;;;;1.75;0.40;;;;;;;-148.58;100.00;55229.56;5026038;28;20036;-59
2021/06/14 08:49:37;;;;;;;1.80;0.50;;;;;;;-148.58;100.00;55229.56;5029706;28;20021;-59
2021/06/14 08:52:04;;;;;;;0.88;0.32;;;;;;;-148.58;100.00;55229.56;5027824;28;20029;-59
2021/06/14 08:54:31;;;;;;;0.80;0.20;;;;;;;-148.58;100.00;55229.56;5029277;28;20029;-60
2021/06/14 08:56:57;;;;;;;1.17;0.17;;;;;;;-148.58;100.00;55229.56;5025783;28;20025;-60
2021/06/14 08:59:22;;;;;;;1.55;0.30;;;;;;;-148.58;100.00;55229.56;5027303;28;20462;-59
2021/06/14 09:01:48;;;;;;;1.48;0.40;;;;;;;-148.58;100.00;55229.56;5022895;28;20041;-60
2021/06/14 09:04:13;;;;;;;1.33;0.40;;;;;;;-148.58;100.00;55229.56;5027242;28;20037;-60
2021/06/14 09:06:38;;;;;;;0.75;0.30;;;;;;;-148.58;100.00;55229.56;5029370;28;20021;-60
2021/06/14 09:09:09;;;;;;;1.58;0.45;;;;;;;-148.58;100.00;55229.56;5023034;28;20044;-60
2021/06/14 09:11:37;;;;;;;1.98;0.32;;;;;;;-148.58;100.00;55229.56;5026311;28;20033;-60
2021/06/14 09:14:14;;;;;;;0.98;0.40;;;;;;;-148.58;100.00;55229.56;5028201;28;20025;-60
2021/06/14 09:16:39;;;;;;;0.77;0.28;;;;;;;-148.58;100.00;55229.56;5010516;28;20472;-60
2021/06/14 09:19:05;;;;;;;0.98;0.20;;;;;;;-148.58;100.00;55229.56;5010607;28;20030;-59
2021/06/14 09:21:30;;;;;;;1.83;0.38;;;;;;;-148.58;100.00;55229.56;5018220;28;20033;-59
2021/06/14 09:24:05;;;;;;;2.83;0.10;;;;;;;-148.58;100.00;55229.56;5018926;28;20057;-60
2021/06/14 09:26:36;;;;;;;0.82;0.22;;;;;;;-148.58;100.00;55229.56;5025388;28;20147;-60
2021/06/14 09:29:05;;;;;;;1.20;0.30;;;;;;;-148.58;100.00;55229.56;5020562;28;20080;-59
2021/06/14 09:31:47;;;;;;;0.30;0.20;;;;;;;-148.58;100.00;55229.56;5025095;28;20039;-59
2021/06/14 09:34:14;;;;;;;0.05;0.00;;;;;;;-148.58;100.00;55229.56;5027464;28;20519;-59
2021/06/14 09:36:40;;;;;;;0.68;0.10;;;;;;;-148.58;100.00;55229.56;5021002;28;20101;-59
2021/06/14 09:39:15;;;;;;;0.30;0.13;;;;;;;-148.58;100.00;55229.56;5022145;28;20053;-60
2021/06/14 09:41:47;;;;;;;1.23;0.22;;;;;;;-148.58;100.00;55229.56;5020180;28;20033;-60
2021/06/14 09:44:13;;;;;;;2.20;0.50;;;;;;;-148.58;100.00;55229.56;5015179;28;20113;-59
2021/06/14 09:46:39;;;;;;;1.30;0.30;;;;;;;-148.58;100.00;55229.56;5021113;28;20128;-60
2021/06/14 09:49:05;;;;;;;0.45;0.15;;;;;;;-148.58;100.00;55229.56;5021889;28;20022;-60
2021/06/14 09:51:34;;;;;;;0.40;0.20;;;;;;;-148.58;100.00;55229.56;5005945;28;20383;-60
2021/06/14 09:54:00;;;;;;;1.17;0.40;;;;;;;-148.58;100.00;55229.56;5031564;28;20026;-59
2021/06/14 09:56:35;;;;;;;2.38;0.35;;;;;;;-148.58;100.00;55229.56;5031596;28;20066;-59
2021/06/14 09:59:00;;;;;;;0.55;0.20;;;;;;;-148.58;100.00;55229.56;5024324;28;20109;-60
2021/06/14 10:01:31;;;;;;;1.63;0.20;;;;;;;-148.58;100.00;55229.56;5020193;28;20038;-61
2021/06/14 10:03:58;;;;;;;0.90;0.13;;;;;;;-148.58;100.00;55229.56;5015662;28;20095;-60
2021/06/14 10:06:31;;;;;;;1.20;0.40;;;;;;;-148.58;100.00;55229.56;5026007;28;20029;-59
2021/06/14 10:08:56;;;;;;;1.25;0.10;;;;;;;-148.58;100.00;55229.56;5028830;28;20071;-60
2021/06/14 10:11:22;;;;;;;2.65;0.30;;;;;;;-148.58;100.00;55229.56;5026992;28;20033;-61
2021/06/14 10:13:49;;;;;;;0.70;0.20;;;;;;;-148.58;100.00;55229.56;5025922;28;20057;-60
2021/06/14 10:16:20;;;;;;;0.57;0.30;;;;;;;-148.58;100.00;55229.56;5014705;28;20091;-59
2021/06/14 10:18:58;;;;;;;0.75;0.10;;;;;;;-148.58;100.00;55229.56;5021771;28;20096;-60
2021/06/14 10:21:24;;;;;;;0.50;0.25;;;;;;;-148.58;100.00;55229.56;5010875;28;20014;-60
2021/06/14 10:23:55;;;;;;;0.80;0.17;;;;;;;-148.58;100.00;55229.56;5016386;28;20354;-60
2021/06/14 10:26:21;;;;;;;0.52;0.10;;;;;;;-148.58;100.00;55229.56;5029194;28;20029;-61
2021/06/14 10:28:47;;;;;;;0.80;0.20;;;;;;;-148.58;100.00;55229.56;5032977;28;20049;-60
2021/06/14 10:31:13;;;;;;;0.13;0.08;;;;;;;-148.58;100.00;55229.56;5033769;28;20033;-60
2021/06/14 10:33:39;;;;;;;0.57;0.10;;;;;;;-148.58;100.00;55229.56;5022726;28;20488;-61
2021/06/14 10:36:05;;;;;;;0.75;0.20;;;;;;;-148.58;100.00;55229.56;5029876;28;20036;-60
2021/06/14 10:38:33;;;;;;;0.60;0.10;;;;;;;-148.58;100.00;55229.56;5033349;28;20043;-60
2021/06/14 10:40:59;;;;;;;0.20;0.10;;;;;;;-148.58;100.00;55229.56;5014750;28;20022;-60
2021/06/14 10:43:27;;;;;;;1.05;0.17;;;;;;;-148.58;100.00;55229.56;5031482;28;20025;-60
2021/06/14 10:45:54;;;;;;;0.63;0.15;;;;;;;-148.58;100.00;55229.56;5034886;28;20033;-60
2021/06/14 10:48:25;;;;;;;0.25;0.22;;;;;;;-148.58;100.00;55229.56;5034192;28;20068;-59
2021/06/14 10:50:51;;;;;;;0.73;0.30;;;;;;;-148.58;100.00;55229.56;5034793;28;20508;-60
2021/06/14 10:53:26;;;;;;;0.10;0.05;;;;;;;-148.58;100.00;55229.56;5035011;28;20030;-60
2021/06/14 10:55:51;;;;;;;0.77;0.30;;;;;;;-148.58;100.00;55229.56;5034899;28;20047;-60
2021/06/14 10:58:18;;;;;;;0.65;0.10;;;;;;;-148.58;100.00;55229.56;5034657;28;20108;-61
2021/06/14 11:00:43;;;;;;;0.22;0.10;;;;;;;-148.58;100.00;55229.56;5032993;28;20342;-60
2021/06/14 11:03:09;;;;;;;1.58;0.35;;;;;;;-148.58;100.00;55229.56;5034303;28;20051;-60
2021/06/14 11:05:42;;;;;;;0.28;0.28;;;;;;;-148.58;100.00;55229.56;5028205;28;20034;-60
2021/06/14 11:08:22;;;;;;;0.75;0.20;;;;;;;-148.58;100.00;55229.56;5018707;28;20465;-60
2021/06/14 11:11:04;;;;;;;0.50;0.20;;;;;;;-148.58;100.00;55229.56;5037188;28;20037;-60
2021/06/14 11:13:30;;;;;;;0.68;0.30;;;;;;;-148.58;100.00;55229.56;5032787;28;20036;-59